RJOF(METAR)
04/26 16:00
METAR RJOF 260700Z 27012KT 9999 FEW015 BKN025 19/13 Q1007 RMK 1CU015
6CU025 A2974 MAX WIND 21KT=
戻る
トップページへ戻る
IMOC Co,.Ltd.